sensor_id;sensor_type;location;lat;lon;timestamp;temperature;humidity
11540;DHT22;5826;54.756;9.192;2023-07-29T00:00:52;19.10;99.90
11540;DHT22;5826;54.756;9.192;2023-07-29T00:03:18;19.10;99.90
11540;DHT22;5826;54.756;9.192;2023-07-29T00:05:43;19.10;99.90
11540;DHT22;5826;54.756;9.192;2023-07-29T00:08:09;19.00;99.90
11540;DHT22;5826;54.756;9.192;2023-07-29T00:10:37;19.00;99.90
11540;DHT22;5826;54.756;9.192;2023-07-29T00:13:04;19.10;99.90
11540;DHT22;5826;54.756;9.192;2023-07-29T00:15:30;19.00;99.90
11540;DHT22;5826;54.756;9.192;2023-07-29T00:17:55;19.60;99.90
11540;DHT22;5826;54.756;9.192;2023-07-29T00:20:21;19.00;99.90
11540;DHT22;5826;54.756;9.192;2023-07-29T00:22:46;19.00;99.90
11540;DHT22;5826;54.756;9.192;2023-07-29T00:25:15;19.00;99.90
11540;DHT22;5826;54.756;9.192;2023-07-29T00:27:41;19.00;99.90
11540;DHT22;5826;54.756;9.192;2023-07-29T00:30:07;19.00;99.90
11540;DHT22;5826;54.756;9.192;2023-07-29T00:32:32;19.10;99.90
11540;DHT22;5826;54.756;9.192;2023-07-29T00:34:58;19.00;99.90
11540;DHT22;5826;54.756;9.192;2023-07-29T00:37:26;19.00;99.90
11540;DHT22;5826;54.756;9.192;2023-07-29T00:39:51;19.00;99.90
11540;DHT22;5826;54.756;9.192;2023-07-29T00:42:17;19.10;99.90
11540;DHT22;5826;54.756;9.192;2023-07-29T00:44:42;19.10;99.90
11540;DHT22;5826;54.756;9.192;2023-07-29T00:47:08;19.00;99.90
11540;DHT22;5826;54.756;9.192;2023-07-29T00:49:34;19.00;99.90
11540;DHT22;5826;54.756;9.192;2023-07-29T00:51:59;19.00;99.90
11540;DHT22;5826;54.756;9.192;2023-07-29T00:54:25;19.30;99.90
11540;DHT22;5826;54.756;9.192;2023-07-29T00:56:50;19.00;99.90
11540;DHT22;5826;54.756;9.192;2023-07-29T00:59:16;19.00;99.90
11540;DHT22;5826;54.756;9.192;2023-07-29T01:01:42;19.00;99.90
11540;DHT22;5826;54.756;9.192;2023-07-29T01:04:08;19.00;99.90
11540;DHT22;5826;54.756;9.192;2023-07-29T01:06:59;19.00;99.90
11540;DHT22;5826;54.756;9.192;2023-07-29T01:09:50;19.00;99.90
11540;DHT22;5826;54.756;9.192;2023-07-29T01:12:34;19.00;99.90
11540;DHT22;5826;54.756;9.192;2023-07-29T01:17:47;19.00;99.90
11540;DHT22;5826;54.756;9.192;2023-07-29T01:20:16;18.90;99.90
11540;DHT22;5826;54.756;9.192;2023-07-29T01:22:45;18.90;99.90
11540;DHT22;5826;54.756;9.192;2023-07-29T01:25:12;18.90;99.90
11540;DHT22;5826;54.756;9.192;2023-07-29T01:27:38;18.90;99.90
11540;DHT22;5826;54.756;9.192;2023-07-29T01:30:04;18.90;99.90
11540;DHT22;5826;54.756;9.192;2023-07-29T01:35:25;18.90;99.90
11540;DHT22;5826;54.756;9.192;2023-07-29T01:37:56;18.80;99.90
11540;DHT22;5826;54.756;9.192;2023-07-29T01:40:26;18.80;99.90
11540;DHT22;5826;54.756;9.192;2023-07-29T01:42:52;18.80;99.90
11540;DHT22;5826;54.756;9.192;2023-07-29T01:45:18;18.80;99.90
11540;DHT22;5826;54.756;9.192;2023-07-29T01:47:44;18.80;99.90
11540;DHT22;5826;54.756;9.192;2023-07-29T01:50:09;18.80;99.90
11540;DHT22;5826;54.756;9.192;2023-07-29T01:52:35;18.80;99.90
11540;DHT22;5826;54.756;9.192;2023-07-29T01:55:01;18.90;99.90
11540;DHT22;5826;54.756;9.192;2023-07-29T01:57:27;18.90;99.90
11540;DHT22;5826;54.756;9.192;2023-07-29T01:59:52;18.90;99.90
11540;DHT22;5826;54.756;9.192;2023-07-29T02:02:18;18.80;99.90
11540;DHT22;5826;54.756;9.192;2023-07-29T02:04:43;18.80;99.90
11540;DHT22;5826;54.756;9.192;2023-07-29T02:07:10;18.90;99.90
11540;DHT22;5826;54.756;9.192;2023-07-29T02:09:36;18.80;99.90
11540;DHT22;5826;54.756;9.192;2023-07-29T02:12:01;18.90;99.90
11540;DHT22;5826;54.756;9.192;2023-07-29T02:14:28;18.80;99.90
11540;DHT22;5826;54.756;9.192;2023-07-29T02:16:53;19.20;99.90
11540;DHT22;5826;54.756;9.192;2023-07-29T02:19:19;18.80;99.90
11540;DHT22;5826;54.756;9.192;2023-07-29T02:21:44;18.80;99.90
11540;DHT22;5826;54.756;9.192;2023-07-29T02:24:10;18.80;99.90
11540;DHT22;5826;54.756;9.192;2023-07-29T02:26:35;18.70;99.90
11540;DHT22;5826;54.756;9.192;2023-07-29T02:29:01;18.70;99.90
11540;DHT22;5826;54.756;9.192;2023-07-29T02:31:26;18.70;99.90
11540;DHT22;5826;54.756;9.192;2023-07-29T02:33:52;18.60;99.90
11540;DHT22;5826;54.756;9.192;2023-07-29T02:36:18;18.60;99.90
11540;DHT22;5826;54.756;9.192;2023-07-29T02:38:44;18.50;99.90
11540;DHT22;5826;54.756;9.192;2023-07-29T02:41:10;18.50;99.90
11540;DHT22;5826;54.756;9.192;2023-07-29T02:43:37;18.50;99.90
11540;DHT22;5826;54.756;9.192;2023-07-29T02:46:03;18.50;99.90
11540;DHT22;5826;54.756;9.192;2023-07-29T02:48:29;18.50;99.90
11540;DHT22;5826;54.756;9.192;2023-07-29T02:50:55;18.40;99.90
11540;DHT22;5826;54.756;9.192;2023-07-29T02:53:22;18.40;99.90
11540;DHT22;5826;54.756;9.192;2023-07-29T02:55:47;18.40;99.90
11540;DHT22;5826;54.756;9.192;2023-07-29T02:58:13;18.40;99.90
11540;DHT22;5826;54.756;9.192;2023-07-29T03:00:38;18.40;99.90
11540;DHT22;5826;54.756;9.192;2023-07-29T03:03:07;18.40;99.90
11540;DHT22;5826;54.756;9.192;2023-07-29T03:05:32;18.40;99.90
11540;DHT22;5826;54.756;9.192;2023-07-29T03:07:58;18.30;99.90
11540;DHT22;5826;54.756;9.192;2023-07-29T03:10:23;18.40;99.90
11540;DHT22;5826;54.756;9.192;2023-07-29T03:12:49;18.30;99.90
11540;DHT22;5826;54.756;9.192;2023-07-29T03:15:14;18.30;99.90
11540;DHT22;5826;54.756;9.192;2023-07-29T03:17:40;18.30;99.90
11540;DHT22;5826;54.756;9.192;2023-07-29T03:20:06;18.30;99.90
11540;DHT22;5826;54.756;9.192;2023-07-29T03:22:32;18.20;99.90
11540;DHT22;5826;54.756;9.192;2023-07-29T03:24:57;18.20;99.90
11540;DHT22;5826;54.756;9.192;2023-07-29T03:27:23;18.20;99.90
11540;DHT22;5826;54.756;9.192;2023-07-29T03:29:48;18.20;99.90
11540;DHT22;5826;54.756;9.192;2023-07-29T03:32:14;18.20;99.90
11540;DHT22;5826;54.756;9.192;2023-07-29T03:34:39;18.20;99.90
11540;DHT22;5826;54.756;9.192;2023-07-29T03:37:06;18.20;99.90
11540;DHT22;5826;54.756;9.192;2023-07-29T03:39:31;18.20;99.90
11540;DHT22;5826;54.756;9.192;2023-07-29T03:41:57;18.20;99.90
11540;DHT22;5826;54.756;9.192;2023-07-29T03:44:23;18.20;99.90
11540;DHT22;5826;54.756;9.192;2023-07-29T03:46:49;18.20;99.90
11540;DHT22;5826;54.756;9.192;2023-07-29T03:49:14;18.20;99.90
11540;DHT22;5826;54.756;9.192;2023-07-29T03:51:39;18.20;99.90
11540;DHT22;5826;54.756;9.192;2023-07-29T03:54:05;18.20;99.90
11540;DHT22;5826;54.756;9.192;2023-07-29T03:56:31;18.20;99.90
11540;DHT22;5826;54.756;9.192;2023-07-29T03:59:06;18.20;99.90
11540;DHT22;5826;54.756;9.192;2023-07-29T04:01:32;18.20;99.90
11540;DHT22;5826;54.756;9.192;2023-07-29T04:03:58;18.20;99.90
11540;DHT22;5826;54.756;9.192;2023-07-29T04:06:24;18.20;99.90
11540;DHT22;5826;54.756;9.192;2023-07-29T04:08:50;18.30;99.90
11540;DHT22;5826;54.756;9.192;2023-07-29T04:11:15;18.20;99.90
11540;DHT22;5826;54.756;9.192;2023-07-29T04:13:41;18.30;99.90
11540;DHT22;5826;54.756;9.192;2023-07-29T04:16:07;18.30;99.90
11540;DHT22;5826;54.756;9.192;2023-07-29T04:18:32;18.30;99.90
11540;DHT22;5826;54.756;9.192;2023-07-29T04:20:58;18.30;99.90
11540;DHT22;5826;54.756;9.192;2023-07-29T04:23:23;18.30;99.90
11540;DHT22;5826;54.756;9.192;2023-07-29T04:25:49;18.30;99.90
11540;DHT22;5826;54.756;9.192;2023-07-29T04:28:15;18.30;99.90
11540;DHT22;5826;54.756;9.192;2023-07-29T04:30:41;18.30;99.90
11540;DHT22;5826;54.756;9.192;2023-07-29T04:33:06;18.40;99.90
11540;DHT22;5826;54.756;9.192;2023-07-29T04:35:32;18.40;99.90
11540;DHT22;5826;54.756;9.192;2023-07-29T04:37:57;18.30;99.90
11540;DHT22;5826;54.756;9.192;2023-07-29T04:40:23;18.30;99.90
11540;DHT22;5826;54.756;9.192;2023-07-29T04:42:50;18.40;99.90
11540;DHT22;5826;54.756;9.192;2023-07-29T04:45:16;19.50;99.90
11540;DHT22;5826;54.756;9.192;2023-07-29T04:47:41;18.40;99.90
11540;DHT22;5826;54.756;9.192;2023-07-29T04:50:07;18.40;99.90
11540;DHT22;5826;54.756;9.192;2023-07-29T04:52:33;18.50;99.90
11540;DHT22;5826;54.756;9.192;2023-07-29T04:54:58;18.50;99.90
11540;DHT22;5826;54.756;9.192;2023-07-29T04:57:24;18.50;99.90
11540;DHT22;5826;54.756;9.192;2023-07-29T04:59:49;18.50;99.90
11540;DHT22;5826;54.756;9.192;2023-07-29T05:02:15;18.60;99.90
11540;DHT22;5826;54.756;9.192;2023-07-29T05:04:41;18.60;99.90
11540;DHT22;5826;54.756;9.192;2023-07-29T05:07:06;18.60;99.90
11540;DHT22;5826;54.756;9.192;2023-07-29T05:09:31;18.70;99.90
11540;DHT22;5826;54.756;9.192;2023-07-29T05:11:57;18.70;99.90
11540;DHT22;5826;54.756;9.192;2023-07-29T05:14:22;18.80;99.90
11540;DHT22;5826;54.756;9.192;2023-07-29T05:16:48;18.80;99.90
11540;DHT22;5826;54.756;9.192;2023-07-29T05:19:14;18.80;99.90
11540;DHT22;5826;54.756;9.192;2023-07-29T05:21:39;18.90;99.90
11540;DHT22;5826;54.756;9.192;2023-07-29T05:24:05;18.90;99.90
11540;DHT22;5826;54.756;9.192;2023-07-29T05:26:31;18.80;99.90
11540;DHT22;5826;54.756;9.192;2023-07-29T05:28:56;18.90;99.90
11540;DHT22;5826;54.756;9.192;2023-07-29T05:31:22;19.00;99.90
11540;DHT22;5826;54.756;9.192;2023-07-29T05:33:48;19.00;99.90
11540;DHT22;5826;54.756;9.192;2023-07-29T05:36:14;19.00;99.90
11540;DHT22;5826;54.756;9.192;2023-07-29T05:38:39;19.10;99.90
11540;DHT22;5826;54.756;9.192;2023-07-29T05:41:05;19.10;99.90
11540;DHT22;5826;54.756;9.192;2023-07-29T05:43:30;19.10;99.90
11540;DHT22;5826;54.756;9.192;2023-07-29T05:45:56;19.10;99.90
11540;DHT22;5826;54.756;9.192;2023-07-29T05:48:21;19.10;99.90
11540;DHT22;5826;54.756;9.192;2023-07-29T05:50:47;19.20;99.90
11540;DHT22;5826;54.756;9.192;2023-07-29T05:53:14;19.10;99.90
11540;DHT22;5826;54.756;9.192;2023-07-29T05:55:39;19.20;99.90
11540;DHT22;5826;54.756;9.192;2023-07-29T05:58:05;19.20;99.90
11540;DHT22;5826;54.756;9.192;2023-07-29T06:00:31;19.30;99.90
11540;DHT22;5826;54.756;9.192;2023-07-29T06:02:56;19.30;99.90
11540;DHT22;5826;54.756;9.192;2023-07-29T06:05:22;19.40;99.90
11540;DHT22;5826;54.756;9.192;2023-07-29T06:07:48;19.40;99.90
11540;DHT22;5826;54.756;9.192;2023-07-29T06:10:15;19.40;99.90
11540;DHT22;5826;54.756;9.192;2023-07-29T06:12:45;19.40;99.90
11540;DHT22;5826;54.756;9.192;2023-07-29T06:15:11;19.40;99.90
11540;DHT22;5826;54.756;9.192;2023-07-29T06:17:37;19.40;99.90
11540;DHT22;5826;54.756;9.192;2023-07-29T06:20:03;19.30;99.90
11540;DHT22;5826;54.756;9.192;2023-07-29T06:22:29;19.30;99.90
11540;DHT22;5826;54.756;9.192;2023-07-29T06:24:54;19.30;99.90
11540;DHT22;5826;54.756;9.192;2023-07-29T06:27:20;19.30;99.90
11540;DHT22;5826;54.756;9.192;2023-07-29T06:29:45;19.30;99.90
11540;DHT22;5826;54.756;9.192;2023-07-29T06:32:11;19.20;99.90
11540;DHT22;5826;54.756;9.192;2023-07-29T06:34:36;19.20;99.90
11540;DHT22;5826;54.756;9.192;2023-07-29T06:37:02;19.10;99.90
11540;DHT22;5826;54.756;9.192;2023-07-29T06:39:27;19.10;99.90
11540;DHT22;5826;54.756;9.192;2023-07-29T06:41:53;19.00;99.90
11540;DHT22;5826;54.756;9.192;2023-07-29T06:44:18;18.90;99.90
11540;DHT22;5826;54.756;9.192;2023-07-29T06:46:44;18.90;99.90
11540;DHT22;5826;54.756;9.192;2023-07-29T06:49:10;18.90;99.90
11540;DHT22;5826;54.756;9.192;2023-07-29T06:51:35;18.90;99.90
11540;DHT22;5826;54.756;9.192;2023-07-29T06:54:01;18.80;99.90
11540;DHT22;5826;54.756;9.192;2023-07-29T06:56:27;18.80;99.90
11540;DHT22;5826;54.756;9.192;2023-07-29T06:58:53;18.80;99.90
11540;DHT22;5826;54.756;9.192;2023-07-29T07:01:18;18.70;99.90
11540;DHT22;5826;54.756;9.192;2023-07-29T07:03:44;18.70;99.90
11540;DHT22;5826;54.756;9.192;2023-07-29T07:06:09;18.70;99.90
11540;DHT22;5826;54.756;9.192;2023-07-29T07:08:35;18.70;99.90
11540;DHT22;5826;54.756;9.192;2023-07-29T07:11:00;18.80;99.90
11540;DHT22;5826;54.756;9.192;2023-07-29T07:13:26;18.80;99.90
11540;DHT22;5826;54.756;9.192;2023-07-29T07:15:54;18.90;99.90
11540;DHT22;5826;54.756;9.192;2023-07-29T07:18:20;18.90;99.90
11540;DHT22;5826;54.756;9.192;2023-07-29T07:20:50;18.90;99.90
11540;DHT22;5826;54.756;9.192;2023-07-29T07:23:17;19.00;99.90
11540;DHT22;5826;54.756;9.192;2023-07-29T07:25:42;19.10;99.90
11540;DHT22;5826;54.756;9.192;2023-07-29T07:28:11;19.10;99.90
11540;DHT22;5826;54.756;9.192;2023-07-29T07:30:40;19.20;99.90
11540;DHT22;5826;54.756;9.192;2023-07-29T07:33:09;19.30;99.90
11540;DHT22;5826;54.756;9.192;2023-07-29T07:35:34;19.30;99.90
11540;DHT22;5826;54.756;9.192;2023-07-29T07:38:00;18.80;99.90
11540;DHT22;5826;54.756;9.192;2023-07-29T07:40:27;19.30;99.90
11540;DHT22;5826;54.756;9.192;2023-07-29T07:42:53;19.30;99.90
11540;DHT22;5826;54.756;9.192;2023-07-29T07:45:19;19.40;99.90
11540;DHT22;5826;54.756;9.192;2023-07-29T07:47:45;19.80;99.90
11540;DHT22;5826;54.756;9.192;2023-07-29T07:50:10;19.40;99.90
11540;DHT22;5826;54.756;9.192;2023-07-29T07:52:36;19.40;99.90
11540;DHT22;5826;54.756;9.192;2023-07-29T07:55:01;19.50;99.90
11540;DHT22;5826;54.756;9.192;2023-07-29T07:57:27;19.50;99.90
11540;DHT22;5826;54.756;9.192;2023-07-29T07:59:53;19.60;99.90
11540;DHT22;5826;54.756;9.192;2023-07-29T08:02:18;19.60;99.90
11540;DHT22;5826;54.756;9.192;2023-07-29T08:04:44;19.70;99.90
11540;DHT22;5826;54.756;9.192;2023-07-29T08:07:10;19.70;99.90
11540;DHT22;5826;54.756;9.192;2023-07-29T08:09:35;19.90;99.90
11540;DHT22;5826;54.756;9.192;2023-07-29T08:12:01;20.00;99.90
11540;DHT22;5826;54.756;9.192;2023-07-29T08:14:26;20.10;99.90
11540;DHT22;5826;54.756;9.192;2023-07-29T08:16:52;20.30;99.90
11540;DHT22;5826;54.756;9.192;2023-07-29T08:19:18;20.50;99.90
11540;DHT22;5826;54.756;9.192;2023-07-29T08:21:43;20.80;99.90
11540;DHT22;5826;54.756;9.192;2023-07-29T08:24:09;20.90;99.90
11540;DHT22;5826;54.756;9.192;2023-07-29T08:26:34;21.00;99.90
11540;DHT22;5826;54.756;9.192;2023-07-29T08:29:00;21.00;99.90
11540;DHT22;5826;54.756;9.192;2023-07-29T08:31:25;21.50;99.90
11540;DHT22;5826;54.756;9.192;2023-07-29T08:33:51;20.90;99.90
11540;DHT22;5826;54.756;9.192;2023-07-29T08:36:16;20.80;99.90
11540;DHT22;5826;54.756;9.192;2023-07-29T08:38:42;20.70;99.90
11540;DHT22;5826;54.756;9.192;2023-07-29T08:41:13;20.50;99.90
11540;DHT22;5826;54.756;9.192;2023-07-29T08:43:44;20.40;99.90
11540;DHT22;5826;54.756;9.192;2023-07-29T08:46:12;20.30;99.90
11540;DHT22;5826;54.756;9.192;2023-07-29T08:48:43;20.20;99.90
11540;DHT22;5826;54.756;9.192;2023-07-29T08:51:10;20.20;99.90
11540;DHT22;5826;54.756;9.192;2023-07-29T08:53:36;20.10;99.90
11540;DHT22;5826;54.756;9.192;2023-07-29T08:56:03;20.10;99.90
11540;DHT22;5826;54.756;9.192;2023-07-29T08:58:29;20.20;99.90
11540;DHT22;5826;54.756;9.192;2023-07-29T09:00:55;20.40;99.90
11540;DHT22;5826;54.756;9.192;2023-07-29T09:03:21;20.60;99.90
11540;DHT22;5826;54.756;9.192;2023-07-29T09:05:47;20.60;99.90
11540;DHT22;5826;54.756;9.192;2023-07-29T09:08:13;20.60;99.90
11540;DHT22;5826;54.756;9.192;2023-07-29T09:10:39;20.70;99.90
11540;DHT22;5826;54.756;9.192;2023-07-29T09:13:05;20.40;99.90
11540;DHT22;5826;54.756;9.192;2023-07-29T09:15:32;20.30;99.90
11540;DHT22;5826;54.756;9.192;2023-07-29T09:17:58;20.20;99.90
11540;DHT22;5826;54.756;9.192;2023-07-29T09:20:28;20.20;99.90
11540;DHT22;5826;54.756;9.192;2023-07-29T09:22:55;20.20;99.90
11540;DHT22;5826;54.756;9.192;2023-07-29T09:25:25;20.20;99.90
11540;DHT22;5826;54.756;9.192;2023-07-29T09:27:51;20.20;99.90
11540;DHT22;5826;54.756;9.192;2023-07-29T09:30:17;20.20;99.90
11540;DHT22;5826;54.756;9.192;2023-07-29T09:32:42;20.10;99.90
11540;DHT22;5826;54.756;9.192;2023-07-29T09:35:11;20.10;99.90
11540;DHT22;5826;54.756;9.192;2023-07-29T09:37:38;20.20;99.90
11540;DHT22;5826;54.756;9.192;2023-07-29T09:40:04;20.30;99.90
11540;DHT22;5826;54.756;9.192;2023-07-29T09:42:30;20.30;99.90
11540;DHT22;5826;54.756;9.192;2023-07-29T09:44:56;20.40;99.90
11540;DHT22;5826;54.756;9.192;2023-07-29T09:47:24;20.40;99.90
11540;DHT22;5826;54.756;9.192;2023-07-29T09:49:53;20.50;99.90
11540;DHT22;5826;54.756;9.192;2023-07-29T09:52:20;20.50;99.90
11540;DHT22;5826;54.756;9.192;2023-07-29T09:54:47;20.40;99.90
11540;DHT22;5826;54.756;9.192;2023-07-29T09:57:14;20.40;99.90
11540;DHT22;5826;54.756;9.192;2023-07-29T09:59:40;20.40;99.90
11540;DHT22;5826;54.756;9.192;2023-07-29T10:02:13;20.50;99.90
11540;DHT22;5826;54.756;9.192;2023-07-29T10:04:42;20.60;99.90
11540;DHT22;5826;54.756;9.192;2023-07-29T10:07:12;20.60;99.90
11540;DHT22;5826;54.756;9.192;2023-07-29T10:09:40;20.60;99.90
11540;DHT22;5826;54.756;9.192;2023-07-29T10:12:07;20.60;99.90
11540;DHT22;5826;54.756;9.192;2023-07-29T10:14:33;20.60;99.90
11540;DHT22;5826;54.756;9.192;2023-07-29T10:17:00;20.60;99.90
11540;DHT22;5826;54.756;9.192;2023-07-29T10:19:26;20.60;99.90
11540;DHT22;5826;54.756;9.192;2023-07-29T10:21:52;20.70;99.90
11540;DHT22;5826;54.756;9.192;2023-07-29T10:24:51;20.50;99.90
11540;DHT22;5826;54.756;9.192;2023-07-29T10:27:49;20.60;99.90
11540;DHT22;5826;54.756;9.192;2023-07-29T10:30:17;20.80;99.90
11540;DHT22;5826;54.756;9.192;2023-07-29T10:32:44;22.30;99.90
11540;DHT22;5826;54.756;9.192;2023-07-29T10:35:11;20.80;99.90
11540;DHT22;5826;54.756;9.192;2023-07-29T10:37:37;20.80;99.90
11540;DHT22;5826;54.756;9.192;2023-07-29T10:40:06;20.90;99.90
11540;DHT22;5826;54.756;9.192;2023-07-29T10:42:32;21.00;99.90
11540;DHT22;5826;54.756;9.192;2023-07-29T10:44:58;21.00;99.90
11540;DHT22;5826;54.756;9.192;2023-07-29T10:47:25;21.10;99.90
11540;DHT22;5826;54.756;9.192;2023-07-29T10:49:58;21.20;99.90
11540;DHT22;5826;54.756;9.192;2023-07-29T10:52:40;21.30;99.90
11540;DHT22;5826;54.756;9.192;2023-07-29T10:55:33;21.30;99.90
11540;DHT22;5826;54.756;9.192;2023-07-29T10:58:17;21.20;99.90
11540;DHT22;5826;54.756;9.192;2023-07-29T11:00:44;21.20;99.90
11540;DHT22;5826;54.756;9.192;2023-07-29T11:03:12;21.10;99.90
11540;DHT22;5826;54.756;9.192;2023-07-29T11:05:53;21.10;99.90
11540;DHT22;5826;54.756;9.192;2023-07-29T11:08:23;21.10;99.90
11540;DHT22;5826;54.756;9.192;2023-07-29T11:11:08;21.20;99.90
11540;DHT22;5826;54.756;9.192;2023-07-29T11:13:37;21.20;99.90
11540;DHT22;5826;54.756;9.192;2023-07-29T11:16:04;21.30;99.90
11540;DHT22;5826;54.756;9.192;2023-07-29T11:18:34;21.40;99.90
11540;DHT22;5826;54.756;9.192;2023-07-29T11:21:01;21.50;99.90
11540;DHT22;5826;54.756;9.192;2023-07-29T11:23:35;21.40;99.90
11540;DHT22;5826;54.756;9.192;2023-07-29T11:26:02;21.30;99.90
11540;DHT22;5826;54.756;9.192;2023-07-29T11:28:28;21.30;99.90
11540;DHT22;5826;54.756;9.192;2023-07-29T11:30:55;21.40;99.90
11540;DHT22;5826;54.756;9.192;2023-07-29T11:33:23;21.40;99.90
11540;DHT22;5826;54.756;9.192;2023-07-29T11:35:49;21.60;99.90
11540;DHT22;5826;54.756;9.192;2023-07-29T11:38:16;22.00;99.90
11540;DHT22;5826;54.756;9.192;2023-07-29T11:40:42;22.40;99.90
11540;DHT22;5826;54.756;9.192;2023-07-29T11:43:07;22.70;99.90
11540;DHT22;5826;54.756;9.192;2023-07-29T11:45:33;22.90;99.90
11540;DHT22;5826;54.756;9.192;2023-07-29T11:48:00;22.90;99.90
11540;DHT22;5826;54.756;9.192;2023-07-29T11:50:26;22.90;99.90
11540;DHT22;5826;54.756;9.192;2023-07-29T11:52:52;22.90;99.90
11540;DHT22;5826;54.756;9.192;2023-07-29T11:55:18;22.80;99.90
11540;DHT22;5826;54.756;9.192;2023-07-29T11:57:45;22.80;99.90
11540;DHT22;5826;54.756;9.192;2023-07-29T12:00:15;22.90;99.90
11540;DHT22;5826;54.756;9.192;2023-07-29T12:02:43;22.90;99.90
11540;DHT22;5826;54.756;9.192;2023-07-29T12:05:10;23.00;99.90
11540;DHT22;5826;54.756;9.192;2023-07-29T12:07:40;23.10;99.90
11540;DHT22;5826;54.756;9.192;2023-07-29T12:10:06;23.30;99.90
11540;DHT22;5826;54.756;9.192;2023-07-29T12:12:32;23.30;99.90
11540;DHT22;5826;54.756;9.192;2023-07-29T12:14:58;23.40;99.90
11540;DHT22;5826;54.756;9.192;2023-07-29T12:17:23;23.50;99.90
11540;DHT22;5826;54.756;9.192;2023-07-29T12:19:49;23.60;99.90
11540;DHT22;5826;54.756;9.192;2023-07-29T12:22:19;23.60;99.90
11540;DHT22;5826;54.756;9.192;2023-07-29T12:24:45;23.50;99.90
11540;DHT22;5826;54.756;9.192;2023-07-29T12:27:12;23.60;99.90
11540;DHT22;5826;54.756;9.192;2023-07-29T12:29:41;23.70;99.90
11540;DHT22;5826;54.756;9.192;2023-07-29T12:32:08;23.90;99.90
11540;DHT22;5826;54.756;9.192;2023-07-29T12:34:35;23.90;99.90
11540;DHT22;5826;54.756;9.192;2023-07-29T12:37:03;23.90;99.90
11540;DHT22;5826;54.756;9.192;2023-07-29T12:39:31;23.80;99.90
11540;DHT22;5826;54.756;9.192;2023-07-29T12:41:58;23.60;99.90
11540;DHT22;5826;54.756;9.192;2023-07-29T12:44:31;23.50;99.90
11540;DHT22;5826;54.756;9.192;2023-07-29T12:46:57;23.20;99.90
11540;DHT22;5826;54.756;9.192;2023-07-29T12:49:22;22.90;99.90
11540;DHT22;5826;54.756;9.192;2023-07-29T12:51:48;22.80;99.90
11540;DHT22;5826;54.756;9.192;2023-07-29T12:54:14;23.10;99.90
11540;DHT22;5826;54.756;9.192;2023-07-29T12:56:39;22.60;99.90
11540;DHT22;5826;54.756;9.192;2023-07-29T12:59:05;22.60;99.90
11540;DHT22;5826;54.756;9.192;2023-07-29T13:01:31;22.60;99.90
11540;DHT22;5826;54.756;9.192;2023-07-29T13:03:57;22.30;99.90
11540;DHT22;5826;54.756;9.192;2023-07-29T13:06:22;22.40;99.90
11540;DHT22;5826;54.756;9.192;2023-07-29T13:08:48;22.80;99.90
11540;DHT22;5826;54.756;9.192;2023-07-29T13:11:15;23.20;99.90
11540;DHT22;5826;54.756;9.192;2023-07-29T13:13:40;23.70;99.90
11540;DHT22;5826;54.756;9.192;2023-07-29T13:16:06;24.10;99.90
11540;DHT22;5826;54.756;9.192;2023-07-29T13:18:32;24.50;99.90
11540;DHT22;5826;54.756;9.192;2023-07-29T13:20:58;24.70;99.90
11540;DHT22;5826;54.756;9.192;2023-07-29T13:23:24;24.90;99.90
11540;DHT22;5826;54.756;9.192;2023-07-29T13:25:49;25.20;99.90
11540;DHT22;5826;54.756;9.192;2023-07-29T13:28:16;25.50;99.90
11540;DHT22;5826;54.756;9.192;2023-07-29T13:30:41;25.50;99.90
11540;DHT22;5826;54.756;9.192;2023-07-29T13:33:07;25.30;99.90
11540;DHT22;5826;54.756;9.192;2023-07-29T13:35:33;25.20;99.90
11540;DHT22;5826;54.756;9.192;2023-07-29T13:38:00;25.30;99.90
11540;DHT22;5826;54.756;9.192;2023-07-29T13:40:25;25.20;99.90
11540;DHT22;5826;54.756;9.192;2023-07-29T13:42:51;25.50;99.90
11540;DHT22;5826;54.756;9.192;2023-07-29T13:45:17;25.90;99.90
11540;DHT22;5826;54.756;9.192;2023-07-29T13:47:43;26.10;99.90
11540;DHT22;5826;54.756;9.192;2023-07-29T13:50:08;26.30;99.90
11540;DHT22;5826;54.756;9.192;2023-07-29T13:52:36;26.40;99.90
11540;DHT22;5826;54.756;9.192;2023-07-29T13:55:01;26.50;99.90
11540;DHT22;5826;54.756;9.192;2023-07-29T13:57:27;26.70;99.90
11540;DHT22;5826;54.756;9.192;2023-07-29T13:59:52;27.50;99.90
11540;DHT22;5826;54.756;9.192;2023-07-29T14:02:18;27.00;99.90
11540;DHT22;5826;54.756;9.192;2023-07-29T14:04:44;26.60;99.90
11540;DHT22;5826;54.756;9.192;2023-07-29T14:07:09;26.00;99.90
11540;DHT22;5826;54.756;9.192;2023-07-29T14:09:35;25.60;99.90
11540;DHT22;5826;54.756;9.192;2023-07-29T14:12:00;25.10;99.90
11540;DHT22;5826;54.756;9.192;2023-07-29T14:14:26;24.70;99.90
11540;DHT22;5826;54.756;9.192;2023-07-29T14:16:51;24.30;99.90
11540;DHT22;5826;54.756;9.192;2023-07-29T14:19:17;24.10;99.90
11540;DHT22;5826;54.756;9.192;2023-07-29T14:21:42;24.10;99.90
11540;DHT22;5826;54.756;9.192;2023-07-29T14:24:08;24.10;99.90
11540;DHT22;5826;54.756;9.192;2023-07-29T14:26:33;23.90;99.90
11540;DHT22;5826;54.756;9.192;2023-07-29T14:28:58;23.90;99.90
11540;DHT22;5826;54.756;9.192;2023-07-29T14:31:24;24.00;99.90
11540;DHT22;5826;54.756;9.192;2023-07-29T14:33:49;24.30;99.90
11540;DHT22;5826;54.756;9.192;2023-07-29T14:36:15;24.60;99.90
11540;DHT22;5826;54.756;9.192;2023-07-29T14:38:41;25.00;99.90
11540;DHT22;5826;54.756;9.192;2023-07-29T14:41:07;25.50;99.90
11540;DHT22;5826;54.756;9.192;2023-07-29T14:43:34;25.80;99.90
11540;DHT22;5826;54.756;9.192;2023-07-29T14:45:59;26.30;99.90
11540;DHT22;5826;54.756;9.192;2023-07-29T14:48:25;26.70;99.90
11540;DHT22;5826;54.756;9.192;2023-07-29T14:50:51;27.20;99.90
11540;DHT22;5826;54.756;9.192;2023-07-29T14:53:16;27.30;99.90
11540;DHT22;5826;54.756;9.192;2023-07-29T14:55:42;27.60;99.90
11540;DHT22;5826;54.756;9.192;2023-07-29T14:58:07;27.60;99.90
11540;DHT22;5826;54.756;9.192;2023-07-29T15:00:33;27.70;99.90
11540;DHT22;5826;54.756;9.192;2023-07-29T15:02:58;28.10;99.90
11540;DHT22;5826;54.756;9.192;2023-07-29T15:05:24;27.60;99.90
11540;DHT22;5826;54.756;9.192;2023-07-29T15:07:49;27.30;99.90
11540;DHT22;5826;54.756;9.192;2023-07-29T15:10:16;27.10;99.90
11540;DHT22;5826;54.756;9.192;2023-07-29T15:12:41;26.80;99.90
11540;DHT22;5826;54.756;9.192;2023-07-29T15:15:08;26.80;99.90
11540;DHT22;5826;54.756;9.192;2023-07-29T15:17:34;26.80;99.90
11540;DHT22;5826;54.756;9.192;2023-07-29T15:19:59;26.80;99.90
11540;DHT22;5826;54.756;9.192;2023-07-29T15:22:25;27.00;99.90
11540;DHT22;5826;54.756;9.192;2023-07-29T15:24:50;27.00;99.90
11540;DHT22;5826;54.756;9.192;2023-07-29T15:27:16;26.90;99.90
11540;DHT22;5826;54.756;9.192;2023-07-29T15:29:41;26.90;99.90
11540;DHT22;5826;54.756;9.192;2023-07-29T15:32:07;27.00;99.90
11540;DHT22;5826;54.756;9.192;2023-07-29T15:34:33;27.00;99.90
11540;DHT22;5826;54.756;9.192;2023-07-29T15:36:58;27.10;99.90
11540;DHT22;5826;54.756;9.192;2023-07-29T15:39:24;26.90;99.90
11540;DHT22;5826;54.756;9.192;2023-07-29T15:41:50;26.80;99.90
11540;DHT22;5826;54.756;9.192;2023-07-29T15:44:15;26.70;99.90
11540;DHT22;5826;54.756;9.192;2023-07-29T15:46:42;26.80;99.90